Language selection

Features

My Weather Profile Weather Topics  | 

West Brevoort - northern half: Past 24 Hour Conditions

 

Mary's Harbour

03:30 PM NDT 17 April 2021
Disclaimer

This table is a summary of hourly weather conditions for the past 24 hours.
Please note that these observations might not always be representative of weather conditions over their associated marine area.

Date / Time
(NDT)
Wind(knots) Conditions Visibility(km) Pressure(kPa) Air tempC) Relative humidity(%) Dew pointC) Wind Chill
17 April 2021
15:30 SE 10 gust 15 Sunny 16 102.2 1 62 -5 *
14:30 SE 11 Sunny 16 102.2 1 65 -5 *
13:30 ESE 9 gust 15 Sunny 16 102.2 1 65 -5 *
12:30 SE 7 Sunny 16 102.3 1 66 -5 *
11:30 SE 5 Partly Cloudy 16 102.3 0 67 -5 *
10:30 SSE 4 Mainly Sunny 16 102.4 -1 67 -6 -3
9:30 S 5 Cloudy 16 102.4 -3 74 -7 -6
8:30 SSW 2 Cloudy 16 102.4 -5 88 -6 -6
7:30 SW 2 Cloudy 16 102.3 -6 92 -7 -8
6:30 SW 2 Mostly Cloudy 16 102.3 -7 95 -8 -9
5:30 SW 2 Clear 16 102.3 -8 94 -8 -10
4:30 WSW 2 Partly Cloudy 16 102.3 -8 94 -9 -10
3:30 WSW 2 Clear 16 102.3 -8 94 -8 -10
2:30 WSW 3 Clear 16 102.3 -7 94 -8 -10
1:30 SW 3 Mainly Clear 16 102.3 -7 94 -8 -9
0:30 SW 3 Mostly Cloudy 16 102.4 -6 95 -7 -9
16 April 2021
23:30 WSW 2 Clear 16 102.4 -5 93 -6 -7
22:30 E 2 Clear 16 102.4 -6 87 -8 -8
21:30 ESE 4 Clear 16 102.4 -5 85 -7 -8
20:30 E 4 Clear 16 102.3 -4 81 -6 -7
19:30 E 6 Sunny 16 102.3 -3 75 -6 -7
18:30 E 9 Sunny 16 102.3 -2 71 -6 -7
17:30 E 9 Sunny 16 102.2 -1 66 -7 -6
16:30 E 9 Sunny 16 102.2 -1 63 -7 -6
15:30 E 8 Sunny 16 102.3 0 56 -8 -4

Zoom-in to make a selection

Map of Atlantic - Labrador marine weather areas Kangiqsualujjuaq Airport Cape Kakkiviak Cape Kiglapait Cartwright Airport CFB Goose Bay Hopedale Mary's Harbour Nain Airport Makkovik Airport Saglek Tukialik Bay
Legend:
buoy Buoy
land station Land Station

Atlantic - Labrador Area

Another Region

What we are doing

Date modified: